Time;durP1;ratioP1;P1;durP2;ratioP2;P2;SDS_P1;SDS_P2;PMS_P1;PMS_P2;Temp;Humidity;BMP_temperature;BMP_pressure;BME280_temperature;BME280_humidity;BME280_pressure;Samples;Min_cycle;Max_cycle;Signal;HPM_P1;HPM_P2
2023/06/13 00:01:53;;;;;;;4.80;2.50;;;17.60;92.90;;;;;;5097639;28;20054;-85
2023/06/13 00:04:23;;;;;;;4.85;2.35;;;17.60;92.90;;;;;;5131388;28;20050;-85
2023/06/13 00:06:50;;;;;;;6.93;2.83;;;17.50;92.90;;;;;;5115002;28;20043;-85
2023/06/13 00:09:17;;;;;;;5.65;2.85;;;17.50;92.80;;;;;;5101866;28;20043;-85
2023/06/13 00:11:45;;;;;;;4.78;2.50;;;17.50;92.90;;;;;;5098060;28;20047;-85
2023/06/13 00:14:12;;;;;;;6.22;2.60;;;17.40;93.00;;;;;;5128902;28;20069;-85
2023/06/13 00:16:39;;;;;;;6.15;2.70;;;17.40;93.10;;;;;;5144792;28;20102;-85
2023/06/13 00:19:06;;;;;;;5.13;2.53;;;17.40;93.10;;;;;;5127616;28;20443;-85
2023/06/13 00:21:33;;;;;;;7.38;2.70;;;17.30;93.10;;;;;;5128129;28;20036;-85
2023/06/13 00:23:59;;;;;;;7.15;2.80;;;17.30;93.20;;;;;;5127819;28;20075;-85
2023/06/13 00:26:26;;;;;;;6.07;2.80;;;17.20;93.30;;;;;;5131288;28;20411;-85
2023/06/13 00:28:53;;;;;;;6.18;2.75;;;17.20;93.40;;;;;;5077577;28;20089;-85
2023/06/13 00:31:19;;;;;;;5.50;2.60;;;17.20;93.40;;;;;;5121666;28;20178;-85
2023/06/13 00:33:50;;;;;;;4.57;2.83;;;17.10;93.50;;;;;;5077757;28;20035;-85
2023/06/13 00:36:20;;;;;;;6.45;2.67;;;17.10;93.60;;;;;;5110827;28;20114;-85
2023/06/13 00:38:50;;;;;;;6.63;3.03;;;17.10;93.80;;;;;;5127350;28;20047;-85
2023/06/13 00:41:17;;;;;;;8.43;3.10;;;17.10;93.80;;;;;;5111372;28;20051;-85
2023/06/13 00:43:43;;;;;;;6.35;2.85;;;17.00;93.80;;;;;;5130685;28;20407;-85
2023/06/13 00:46:13;;;;;;;7.57;3.00;;;17.00;93.90;;;;;;5113993;28;20557;-85
2023/06/13 00:48:42;;;;;;;6.00;3.25;;;16.90;93.90;;;;;;5098032;28;20100;-85
2023/06/13 00:51:10;;;;;;;5.60;2.95;;;16.90;93.80;;;;;;5094076;28;20040;-85
2023/06/13 00:53:37;;;;;;;4.22;2.88;;;16.90;93.90;;;;;;5094255;28;20400;-85
2023/06/13 00:56:06;;;;;;;7.20;2.90;;;16.80;93.90;;;;;;5077069;28;20028;-85
2023/06/13 00:58:36;;;;;;;4.80;2.83;;;16.80;94.00;;;;;;5077959;28;20518;-85
2023/06/13 01:01:04;;;;;;;6.55;2.72;;;16.70;94.10;;;;;;5094056;28;20040;-85
2023/06/13 01:03:34;;;;;;;6.75;3.38;;;16.70;94.20;;;;;;5094216;28;20131;-85
2023/06/13 01:06:01;;;;;;;6.20;3.10;;;16.60;94.30;;;;;;5110554;28;20040;-85
2023/06/13 01:08:29;;;;;;;6.53;2.80;;;16.60;94.40;;;;;;5097538;28;20043;-85
2023/06/13 01:11:09;;;;;;;6.32;3.20;;;16.50;94.60;;;;;;5113770;28;20057;-85
2023/06/13 01:13:47;;;;;;;8.32;3.28;;;16.50;94.80;;;;;;5129360;28;20031;-85
2023/06/13 01:16:25;;;;;;;7.82;3.40;;;16.40;95.00;;;;;;5110346;28;20032;-85
2023/06/13 01:18:56;;;;;;;5.63;3.50;;;16.40;94.90;;;;;;5129951;28;20047;-85
2023/06/13 01:21:24;;;;;;;9.02;3.67;;;16.30;94.90;;;;;;5130481;28;20048;-85
2023/06/13 01:24:00;;;;;;;6.57;3.30;;;16.30;95.00;;;;;;5096757;28;20489;-85
2023/06/13 01:26:45;;;;;;;5.68;3.63;;;16.30;95.30;;;;;;5130708;28;20078;-85
2023/06/13 01:29:14;;;;;;;8.63;3.28;;;16.20;95.70;;;;;;5109361;28;20037;-85
2023/06/13 01:31:42;;;;;;;8.13;3.47;;;16.10;95.20;;;;;;5093745;28;20127;-85
2023/06/13 01:34:10;;;;;;;7.68;3.47;;;16.10;95.30;;;;;;5101828;28;20044;-85
2023/06/13 01:36:36;;;;;;;7.10;3.22;;;16.10;95.40;;;;;;5130281;28;20415;-85
2023/06/13 01:39:03;;;;;;;7.07;3.17;;;16.00;95.50;;;;;;5096162;28;20035;-85
2023/06/13 01:41:30;;;;;;;7.63;3.28;;;16.00;95.60;;;;;;5109598;28;20728;-85
2023/06/13 01:43:57;;;;;;;5.20;3.30;;;16.00;95.70;;;;;;5093083;28;20052;-85
2023/06/13 01:46:29;;;;;;;8.70;3.60;;;15.90;95.70;;;;;;5093290;28;20039;-85
2023/06/13 01:49:08;;;;;;;6.18;3.75;;;15.90;95.70;;;;;;5120336;28;20048;-85
2023/06/13 01:51:50;;;;;;;6.53;3.28;;;15.90;96.10;;;;;;5130203;28;20043;-85
2023/06/13 01:54:21;;;;;;;7.22;3.70;;;15.90;95.90;;;;;;5130093;28;20122;-85
2023/06/13 01:56:55;;;;;;;6.32;3.58;;;15.80;95.90;;;;;;5147270;28;20044;-85
2023/06/13 01:59:25;;;;;;;5.47;3.50;;;15.80;96.00;;;;;;5130032;28;20040;-85
2023/06/13 02:01:54;;;;;;;9.38;4.43;;;15.80;96.00;;;;;;5112642;28;20050;-85
2023/06/13 02:04:20;;;;;;;7.75;3.55;;;15.80;96.00;;;;;;5113292;28;20047;-85
2023/06/13 02:06:47;;;;;;;11.00;4.22;;;15.70;96.00;;;;;;5113184;28;20047;-85
2023/06/13 02:09:14;;;;;;;8.63;3.67;;;15.70;96.00;;;;;;5124407;28;20042;-84
2023/06/13 02:11:41;;;;;;;5.78;3.35;;;15.70;96.10;;;;;;5096044;28;20040;-86
2023/06/13 02:14:08;;;;;;;6.00;3.92;;;15.70;96.00;;;;;;5092170;28;20040;-85
2023/06/13 02:16:38;;;;;;;7.53;3.47;;;15.70;96.00;;;;;;5092777;28;20118;-85
2023/06/13 02:19:07;;;;;;;8.98;3.97;;;15.60;96.00;;;;;;5096693;28;20035;-85
2023/06/13 02:21:34;;;;;;;6.72;3.40;;;15.60;96.00;;;;;;5109127;28;20048;-85
2023/06/13 02:24:01;;;;;;;6.35;3.85;;;15.60;96.00;;;;;;5109353;28;20032;-84
2023/06/13 02:26:30;;;;;;;6.57;3.70;;;15.60;96.00;;;;;;5092855;28;20068;-85
2023/06/13 02:28:57;;;;;;;9.30;3.63;;;15.60;96.10;;;;;;5092740;28;20130;-85
2023/06/13 02:31:24;;;;;;;7.22;3.58;;;15.60;96.00;;;;;;5092952;28;20040;-85
2023/06/13 02:33:51;;;;;;;8.25;4.00;;;15.60;96.10;;;;;;5092624;28;20043;-85
2023/06/13 02:36:18;;;;;;;8.65;3.80;;;15.50;96.20;;;;;;5092457;28;20082;-85
2023/06/13 02:38:44;;;;;;;6.60;3.50;;;15.50;96.20;;;;;;5096184;28;20047;-85
2023/06/13 02:41:12;;;;;;;9.23;4.03;;;15.60;96.10;;;;;;5130337;28;20067;-85
2023/06/13 02:43:38;;;;;;;5.85;3.75;;;15.60;96.00;;;;;;5116651;28;20035;-85
2023/06/13 02:46:06;;;;;;;7.70;3.72;;;15.50;95.90;;;;;;5099460;28;20044;-85
2023/06/13 02:48:33;;;;;;;9.95;3.67;;;15.50;96.00;;;;;;5116179;28;20087;-85
2023/06/13 02:51:00;;;;;;;7.50;3.45;;;15.60;96.00;;;;;;5116136;28;20085;-85
2023/06/13 02:53:27;;;;;;;7.90;3.75;;;15.50;96.00;;;;;;5133018;28;20036;-85
2023/06/13 02:55:54;;;;;;;6.75;3.85;;;15.50;96.20;;;;;;5115861;28;20096;-84
2023/06/13 02:58:21;;;;;;;6.22;3.30;;;15.40;96.20;;;;;;5099294;28;20422;-85
2023/06/13 03:00:48;;;;;;;9.10;3.95;;;15.40;96.10;;;;;;5116166;28;20039;-85
2023/06/13 03:03:18;;;;;;;6.50;4.00;;;15.30;96.10;;;;;;5115983;28;20040;-85
2023/06/13 03:05:47;;;;;;;6.55;3.75;;;15.30;96.10;;;;;;5133405;28;20063;-85
2023/06/13 03:08:18;;;;;;;6.95;3.90;;;15.20;96.20;;;;;;5115552;28;20043;-85
2023/06/13 03:10:47;;;;;;;9.38;3.95;;;15.10;96.30;;;;;;5100531;28;20756;-85
2023/06/13 03:13:16;;;;;;;7.82;3.90;;;15.10;96.40;;;;;;5100442;28;20035;-85
2023/06/13 03:15:45;;;;;;;7.68;3.78;;;15.00;96.40;;;;;;5116549;28;20065;-85
2023/06/13 03:18:12;;;;;;;6.72;3.70;;;15.00;96.50;;;;;;5132841;28;20067;-85
2023/06/13 03:20:45;;;;;;;6.13;3.60;;;15.00;96.50;;;;;;5099283;28;20039;-85
2023/06/13 03:23:15;;;;;;;7.38;3.75;;;15.00;96.40;;;;;;5100731;28;20032;-85
2023/06/13 03:25:42;;;;;;;8.10;4.18;;;15.00;96.50;;;;;;5098996;28;20040;-85
2023/06/13 03:28:09;;;;;;;6.68;3.88;;;14.90;96.50;;;;;;5115695;28;20054;-85
2023/06/13 03:30:36;;;;;;;6.57;3.58;;;15.00;96.40;;;;;;5099279;28;20032;-85
2023/06/13 03:33:03;;;;;;;6.63;3.67;;;15.00;96.40;;;;;;5132146;28;20039;-85
2023/06/13 03:35:30;;;;;;;9.77;3.80;;;14.90;96.40;;;;;;5116089;28;20032;-85
2023/06/13 03:37:57;;;;;;;8.23;3.58;;;14.90;96.40;;;;;;5098927;28;20043;-85
2023/06/13 03:40:23;;;;;;;6.30;3.65;;;14.90;96.40;;;;;;5131927;28;20039;-85
2023/06/13 03:42:50;;;;;;;6.15;3.70;;;14.90;96.50;;;;;;5098924;28;20043;-85
2023/06/13 03:45:17;;;;;;;6.93;3.90;;;14.90;96.70;;;;;;5098765;28;20101;-85
2023/06/13 03:47:44;;;;;;;9.05;3.63;;;14.90;96.80;;;;;;5116000;27;20054;-85
2023/06/13 03:50:11;;;;;;;8.40;4.00;;;14.90;96.60;;;;;;5118448;27;20105;-85
2023/06/13 03:52:38;;;;;;;10.43;3.80;;;14.90;96.90;;;;;;5134980;27;20059;-85
2023/06/13 03:55:05;;;;;;;8.52;3.58;;;14.90;96.70;;;;;;5118876;27;20039;-85
2023/06/13 03:57:31;;;;;;;7.72;3.80;;;14.90;96.60;;;;;;5118634;27;20039;-85
2023/06/13 03:59:58;;;;;;;7.78;3.90;;;14.90;96.50;;;;;;5102005;27;20038;-85
2023/06/13 04:02:25;;;;;;;9.93;3.97;;;15.00;96.50;;;;;;5101760;27;20488;-85
2023/06/13 04:04:52;;;;;;;5.90;3.65;;;15.00;96.50;;;;;;5118535;27;20110;-85
2023/06/13 04:07:21;;;;;;;7.55;3.97;;;15.00;96.50;;;;;;5101957;27;20046;-85
2023/06/13 04:09:48;;;;;;;7.45;3.65;;;14.90;96.70;;;;;;5102359;27;20045;-84
2023/06/13 04:12:14;;;;;;;5.68;3.25;;;15.00;97.00;;;;;;5101438;27;20122;-85
2023/06/13 04:14:41;;;;;;;11.70;4.00;;;14.90;97.00;;;;;;5118536;27;20038;-85
2023/06/13 04:17:09;;;;;;;14.32;3.60;;;14.90;97.20;;;;;;5101970;27;20445;-85
2023/06/13 04:19:37;;;;;;;7.30;3.63;;;14.90;97.30;;;;;;5118638;27;20475;-85
2023/06/13 04:22:05;;;;;;;7.65;3.92;;;14.90;97.50;;;;;;5102542;27;20038;-85
2023/06/13 04:24:35;;;;;;;9.00;3.75;;;14.90;97.70;;;;;;5118543;27;20483;-85
2023/06/13 04:27:03;;;;;;;5.28;3.38;;;14.90;97.80;;;;;;5102518;27;20051;-85
2023/06/13 04:29:30;;;;;;;8.07;3.60;;;14.90;97.90;;;;;;5118240;27;20137;-86
2023/06/13 04:31:57;;;;;;;6.47;3.30;;;14.90;98.00;;;;;;5134887;27;20108;-85
2023/06/13 04:34:24;;;;;;;10.52;3.50;;;14.80;98.20;;;;;;5100925;27;20031;-85
2023/06/13 04:36:55;;;;;;;6.72;3.50;;;14.90;98.20;;;;;;5118526;27;20122;-85
2023/06/13 04:39:24;;;;;;;6.10;3.28;;;14.90;98.30;;;;;;5118256;27;20077;-85
2023/06/13 04:41:55;;;;;;;6.70;3.38;;;14.80;98.20;;;;;;5134981;27;20487;-85
2023/06/13 04:44:27;;;;;;;6.63;3.47;;;14.90;98.40;;;;;;5118485;27;20100;-85
2023/06/13 04:47:01;;;;;;;6.63;3.75;;;14.90;98.30;;;;;;5102737;27;20039;-85
2023/06/13 04:49:28;;;;;;;6.70;3.22;;;14.90;98.20;;;;;;5114875;28;20043;-85
2023/06/13 04:51:55;;;;;;;6.00;3.42;;;14.90;98.00;;;;;;5148336;28;20043;-85
2023/06/13 04:54:23;;;;;;;7.93;3.10;;;14.90;98.00;;;;;;5096940;28;20035;-85
2023/06/13 04:56:50;;;;;;;5.57;3.25;;;15.00;98.00;;;;;;5114650;28;20403;-85
2023/06/13 04:59:19;;;;;;;6.22;3.28;;;15.00;97.70;;;;;;5114235;28;20031;-85
2023/06/13 05:01:47;;;;;;;8.45;2.92;;;15.00;97.70;;;;;;5097927;28;20395;-86
2023/06/13 05:04:14;;;;;;;7.90;3.35;;;15.00;97.50;;;;;;5096649;28;20039;-86
2023/06/13 05:06:41;;;;;;;10.48;3.00;;;15.00;97.40;;;;;;5113575;28;20071;-86
2023/06/13 05:09:08;;;;;;;5.60;2.92;;;15.10;97.40;;;;;;5097371;28;20043;-86
2023/06/13 05:11:35;;;;;;;4.75;2.95;;;15.20;97.40;;;;;;5113655;28;20373;-85
2023/06/13 05:14:02;;;;;;;7.18;3.20;;;15.20;97.50;;;;;;5113914;28;20488;-85
2023/06/13 05:16:29;;;;;;;5.80;2.88;;;15.20;97.50;;;;;;5113603;28;20118;-85
2023/06/13 05:18:57;;;;;;;5.88;2.88;;;15.30;97.70;;;;;;5114021;28;20041;-85
2023/06/13 05:21:24;;;;;;;5.22;3.03;;;15.30;97.60;;;;;;5113339;28;20040;-85
2023/06/13 05:23:51;;;;;;;5.72;3.13;;;15.40;97.60;;;;;;5097132;28;20047;-85
2023/06/13 05:26:18;;;;;;;7.13;3.50;;;15.40;97.80;;;;;;5113806;28;20450;-85
2023/06/13 05:28:44;;;;;;;7.32;3.13;;;15.50;97.80;;;;;;5097440;28;20122;-85
2023/06/13 05:31:12;;;;;;;6.35;2.55;;;15.60;97.60;;;;;;5097108;28;20041;-85
2023/06/13 05:33:39;;;;;;;5.57;2.65;;;15.60;97.40;;;;;;5098133;28;20040;-85
2023/06/13 05:36:06;;;;;;;6.90;2.83;;;15.70;97.40;;;;;;5102279;28;20404;-85
2023/06/13 05:38:33;;;;;;;6.20;2.55;;;15.80;97.40;;;;;;5112713;28;20035;-85
2023/06/13 05:40:59;;;;;;;5.13;3.00;;;15.90;97.20;;;;;;5113221;28;20050;-85
2023/06/13 05:43:26;;;;;;;4.68;2.70;;;16.00;96.90;;;;;;5112884;28;20044;-85
2023/06/13 05:45:53;;;;;;;5.60;2.97;;;16.10;96.80;;;;;;5113615;28;20388;-85
2023/06/13 05:48:19;;;;;;;5.22;2.78;;;16.20;96.80;;;;;;5114465;28;20051;-86
2023/06/13 05:50:46;;;;;;;6.47;2.70;;;16.30;96.50;;;;;;5116450;27;20043;-85
2023/06/13 05:53:13;;;;;;;6.72;2.90;;;16.40;96.40;;;;;;5100369;27;20027;-85
2023/06/13 05:55:40;;;;;;;5.93;3.17;;;16.50;96.00;;;;;;5099770;28;20038;-85
2023/06/13 05:58:06;;;;;;;7.45;3.03;;;16.50;96.00;;;;;;5100180;28;20091;-85
2023/06/13 06:00:33;;;;;;;6.35;2.72;;;16.60;96.00;;;;;;5107399;28;20069;-85
2023/06/13 06:03:00;;;;;;;7.28;3.10;;;16.70;95.80;;;;;;5093911;27;20050;-85
2023/06/13 06:05:29;;;;;;;7.35;2.78;;;16.90;95.50;;;;;;5086970;28;20036;-85
2023/06/13 06:07:56;;;;;;;5.70;2.70;;;17.00;95.20;;;;;;5097093;28;20049;-85
2023/06/13 06:10:22;;;;;;;5.43;2.60;;;17.10;95.00;;;;;;5080221;28;20122;-86
2023/06/13 06:12:49;;;;;;;5.93;2.80;;;17.20;94.90;;;;;;5079531;28;20314;-86
2023/06/13 06:15:16;;;;;;;5.38;2.40;;;17.20;94.50;;;;;;5080892;28;20032;-85
2023/06/13 06:17:42;;;;;;;7.80;2.63;;;17.40;94.50;;;;;;5117190;28;20492;-85
2023/06/13 06:20:09;;;;;;;4.32;2.50;;;17.40;94.30;;;;;;5100646;28;20043;-86
2023/06/13 06:22:36;;;;;;;4.03;2.40;;;17.60;94.30;;;;;;5100447;27;20035;-85
2023/06/13 06:25:03;;;;;;;5.32;2.67;;;17.60;94.20;;;;;;5102928;27;20046;-86
2023/06/13 06:27:30;;;;;;;7.70;2.60;;;17.80;93.40;;;;;;5136757;27;20476;-85
2023/06/13 06:29:57;;;;;;;7.13;2.80;;;17.90;93.80;;;;;;5120936;27;20185;-86
2023/06/13 06:32:24;;;;;;;8.80;2.80;;;18.10;93.60;;;;;;5089535;28;20509;-86
2023/06/13 06:34:51;;;;;;;4.97;2.17;;;18.20;93.30;;;;;;5093522;27;20046;-85
2023/06/13 06:37:18;;;;;;;4.55;2.58;;;18.30;93.40;;;;;;5120449;27;20035;-86
2023/06/13 06:39:45;;;;;;;4.63;2.47;;;18.40;93.20;;;;;;5103326;27;20395;-86
2023/06/13 06:42:15;;;;;;;15.52;2.58;;;18.50;93.20;;;;;;5104319;27;20444;-87
2023/06/13 06:44:42;;;;;;;4.70;2.50;;;18.60;93.10;;;;;;5120873;27;20551;-87
2023/06/13 06:47:09;;;;;;;6.65;2.30;;;18.70;92.90;;;;;;5102065;27;20043;-85
2023/06/13 06:49:35;;;;;;;8.20;2.08;;;18.90;92.80;;;;;;5102964;27;20047;-85
2023/06/13 06:52:02;;;;;;;5.05;2.25;;;19.00;92.80;;;;;;5103436;27;20035;-85
2023/06/13 06:54:29;;;;;;;6.38;2.45;;;19.10;93.00;;;;;;5103515;27;20039;-85
2023/06/13 06:56:56;;;;;;;8.27;2.58;;;19.10;92.90;;;;;;5108450;28;20074;-85
2023/06/13 06:59:22;;;;;;;6.28;2.53;;;19.20;92.60;;;;;;5083227;28;20134;-85
2023/06/13 07:01:50;;;;;;;7.45;2.17;;;19.40;92.50;;;;;;5082873;28;20412;-85
2023/06/13 07:04:17;;;;;;;5.43;2.20;;;19.60;92.20;;;;;;5099479;28;20130;-85
2023/06/13 07:06:44;;;;;;;2.83;1.80;;;19.60;92.20;;;;;;5099408;28;20134;-85
2023/06/13 07:09:11;;;;;;;9.07;1.92;;;19.70;91.90;;;;;;5099617;28;20483;-85
2023/06/13 07:11:38;;;;;;;5.00;2.55;;;19.90;91.60;;;;;;5082820;28;20076;-85
2023/06/13 07:14:04;;;;;;;5.85;2.20;;;20.00;91.70;;;;;;5083407;28;20542;-87
2023/06/13 07:16:31;;;;;;;4.40;2.17;;;20.10;91.60;;;;;;5099246;28;20035;-84
2023/06/13 07:18:58;;;;;;;6.13;2.33;;;20.30;91.60;;;;;;5115846;28;20048;-85
2023/06/13 07:21:25;;;;;;;5.10;1.92;;;20.40;91.40;;;;;;5082584;28;20128;-84
2023/06/13 07:23:52;;;;;;;5.95;2.22;;;20.50;91.40;;;;;;5087771;28;20146;-85
2023/06/13 07:26:19;;;;;;;4.20;2.10;;;20.60;91.60;;;;;;5108653;27;20126;-86
2023/06/13 07:28:46;;;;;;;5.15;2.22;;;20.80;91.40;;;;;;5117778;28;20039;-84
2023/06/13 07:31:13;;;;;;;5.50;2.15;;;20.90;90.80;;;;;;5117141;27;20039;-83
2023/06/13 07:33:39;;;;;;;4.90;1.88;;;21.00;90.30;;;;;;5102015;27;20122;-85
2023/06/13 07:36:06;;;;;;;5.22;2.30;;;21.10;90.20;;;;;;5135886;27;20047;-84
2023/06/13 07:38:33;;;;;;;8.18;2.35;;;21.30;90.30;;;;;;5140769;28;20044;-83
2023/06/13 07:40:59;;;;;;;4.53;2.20;;;21.40;90.20;;;;;;5118551;27;20079;-83
2023/06/13 07:43:26;;;;;;;4.93;2.10;;;21.50;90.20;;;;;;5098441;28;20048;-84
2023/06/13 07:45:53;;;;;;;4.20;2.13;;;21.70;90.10;;;;;;5104129;27;20402;-84
2023/06/13 07:48:19;;;;;;;3.40;1.90;;;21.80;90.30;;;;;;5102987;27;20047;-86
2023/06/13 07:50:47;;;;;;;9.48;2.35;;;21.80;90.30;;;;;;5093601;27;20043;-86
2023/06/13 07:53:15;;;;;;;7.57;2.30;;;21.90;90.20;;;;;;5135377;27;20068;-85
2023/06/13 07:55:46;;;;;;;3.70;2.10;;;22.00;90.20;;;;;;5110836;28;20031;-86
2023/06/13 07:58:14;;;;;;;4.35;2.40;;;22.20;90.20;;;;;;5101945;28;20127;-85
2023/06/13 08:00:40;;;;;;;4.03;2.30;;;22.20;90.20;;;;;;5115187;27;20056;-85
2023/06/13 08:03:07;;;;;;;4.03;2.50;;;22.40;90.10;;;;;;5133831;27;20132;-86
2023/06/13 08:05:34;;;;;;;5.35;2.17;;;22.50;89.70;;;;;;5130851;27;20031;-86
2023/06/13 08:08:00;;;;;;;4.57;2.22;;;22.50;89.80;;;;;;5096329;27;20038;-85
2023/06/13 08:10:27;;;;;;;5.60;2.28;;;22.70;89.40;;;;;;5123212;28;20063;-85
2023/06/13 08:12:55;;;;;;;4.38;2.00;;;22.80;89.40;;;;;;5092289;27;20043;-86
2023/06/13 08:15:21;;;;;;;5.88;2.40;;;22.90;89.20;;;;;;5110718;28;20487;-85
2023/06/13 08:17:48;;;;;;;5.55;2.25;;;22.90;88.80;;;;;;5081240;28;20035;-85
2023/06/13 08:20:15;;;;;;;5.05;2.05;;;23.00;88.40;;;;;;5085636;27;20031;-85
2023/06/13 08:22:42;;;;;;;4.47;2.45;;;23.20;88.30;;;;;;5113770;28;20192;-85
2023/06/13 08:25:09;;;;;;;5.75;1.98;;;23.30;87.90;;;;;;5097711;28;20502;-85
2023/06/13 08:27:36;;;;;;;5.03;2.20;;;23.40;87.50;;;;;;5097867;28;20496;-85
2023/06/13 08:30:07;;;;;;;5.75;2.22;;;23.50;87.00;;;;;;5126318;27;20039;-86
2023/06/13 08:32:34;;;;;;;7.05;2.20;;;23.60;86.80;;;;;;5134937;27;20038;-86
2023/06/13 08:35:01;;;;;;;5.30;2.45;;;23.80;86.90;;;;;;5114429;27;21859;-86
2023/06/13 08:37:28;;;;;;;3.97;2.20;;;23.80;86.90;;;;;;5114130;28;20039;-86
2023/06/13 08:39:55;;;;;;;6.68;2.13;;;23.90;86.90;;;;;;5097588;28;20043;-86
2023/06/13 08:42:22;;;;;;;3.95;2.10;;;24.00;86.60;;;;;;5097341;28;20496;-86
2023/06/13 08:44:49;;;;;;;4.03;2.30;;;24.10;86.30;;;;;;5134575;27;20046;-86
2023/06/13 08:47:18;;;;;;;4.20;2.50;;;24.10;85.30;;;;;;5117701;27;20039;-86
2023/06/13 08:49:48;;;;;;;3.72;2.10;;;24.30;84.20;;;;;;5117108;27;20051;-86
2023/06/13 08:52:17;;;;;;;4.80;2.10;;;24.40;83.70;;;;;;5100547;27;20063;-86
2023/06/13 08:54:48;;;;;;;6.40;2.13;;;24.40;83.30;;;;;;5131392;27;20039;-84
2023/06/13 08:57:16;;;;;;;7.35;2.38;;;24.50;84.00;;;;;;5107883;28;20032;-86
2023/06/13 08:59:48;;;;;;;5.55;2.10;;;24.50;84.30;;;;;;5115293;27;20043;-85
2023/06/13 09:02:19;;;;;;;6.20;2.30;;;24.60;83.40;;;;;;5134168;27;20043;-85
2023/06/13 09:04:47;;;;;;;6.25;2.50;;;24.80;83.80;;;;;;5114651;27;20487;-85
2023/06/13 09:07:16;;;;;;;4.03;2.40;;;24.80;84.20;;;;;;5123489;27;20126;-85
2023/06/13 09:09:44;;;;;;;5.25;2.40;;;25.00;84.00;;;;;;5133916;27;20402;-86
2023/06/13 09:12:13;;;;;;;4.47;2.30;;;25.00;83.40;;;;;;5116808;27;20437;-85
2023/06/13 09:14:40;;;;;;;6.13;2.60;;;25.20;83.50;;;;;;5132983;27;20031;-85
2023/06/13 09:17:07;;;;;;;5.50;2.42;;;25.30;82.80;;;;;;5100405;27;20046;-85
2023/06/13 09:19:34;;;;;;;5.45;2.40;;;25.40;81.90;;;;;;5117659;28;20040;-86
2023/06/13 09:22:01;;;;;;;4.10;2.40;;;25.40;81.90;;;;;;5096010;28;20499;-86
2023/06/13 09:24:31;;;;;;;3.67;2.38;;;25.50;81.20;;;;;;5097054;28;20050;-86
2023/06/13 09:27:00;;;;;;;8.00;2.40;;;25.50;81.50;;;;;;5115755;27;20058;-85
2023/06/13 09:29:34;;;;;;;4.90;2.70;;;25.60;81.60;;;;;;5116469;27;20035;-84
2023/06/13 09:32:03;;;;;;;5.37;2.47;;;25.60;80.20;;;;;;5150062;27;20403;-85
2023/06/13 09:34:29;;;;;;;5.30;2.42;;;25.60;81.60;;;;;;5150317;27;20873;-85
2023/06/13 09:36:57;;;;;;;4.05;2.40;;;25.60;82.10;;;;;;5116195;27;20148;-85
2023/06/13 09:39:27;;;;;;;4.50;2.33;;;25.70;82.30;;;;;;5133470;27;20487;-84
2023/06/13 09:41:59;;;;;;;3.88;2.22;;;25.80;81.70;;;;;;5116376;27;20039;-85
2023/06/13 09:44:26;;;;;;;4.15;2.45;;;25.90;81.80;;;;;;5155517;27;20039;-86
2023/06/13 09:46:54;;;;;;;3.78;2.25;;;25.90;81.80;;;;;;5140142;27;20043;-85
2023/06/13 09:49:21;;;;;;;4.25;2.47;;;26.00;81.20;;;;;;5112053;28;20131;-85
2023/06/13 09:51:50;;;;;;;6.50;2.42;;;26.00;82.40;;;;;;5092210;28;20551;-86
2023/06/13 09:54:17;;;;;;;7.00;2.28;;;26.10;81.60;;;;;;5093298;28;20040;-86
2023/06/13 09:56:44;;;;;;;5.80;2.42;;;26.20;81.00;;;;;;5076108;28;20062;-85
2023/06/13 09:59:17;;;;;;;4.97;2.40;;;26.20;80.70;;;;;;5075747;28;20036;-86
2023/06/13 10:01:48;;;;;;;8.70;2.35;;;26.20;80.80;;;;;;5109406;28;20054;-85
2023/06/13 10:04:15;;;;;;;6.57;2.45;;;26.30;80.70;;;;;;5076144;28;20089;-87
2023/06/13 10:06:42;;;;;;;5.30;2.40;;;26.40;80.50;;;;;;5085484;28;20032;-87
2023/06/13 10:09:12;;;;;;;9.57;2.55;;;26.50;80.50;;;;;;5088082;28;20066;-87
2023/06/13 10:11:44;;;;;;;7.90;2.30;;;26.60;80.40;;;;;;5057101;28;20043;-86
2023/06/13 10:14:21;;;;;;;4.32;2.40;;;26.60;79.90;;;;;;5100746;28;20069;-85
2023/06/13 10:16:59;;;;;;;5.63;2.20;;;26.80;80.50;;;;;;5099689;28;20427;-86
2023/06/13 10:19:26;;;;;;;5.10;2.00;;;26.70;79.60;;;;;;5108589;28;20073;-85
2023/06/13 10:21:53;;;;;;;8.13;2.38;;;26.70;80.40;;;;;;5080264;28;20036;-85
2023/06/13 10:24:21;;;;;;;3.67;2.17;;;26.60;80.50;;;;;;5088045;28;20048;-85
2023/06/13 10:26:55;;;;;;;6.88;2.20;;;26.60;80.70;;;;;;5097415;28;20444;-85
2023/06/13 10:29:21;;;;;;;4.47;2.30;;;26.60;80.90;;;;;;5102771;28;20488;-85
2023/06/13 10:32:11;;;;;;;3.83;2.20;;;26.70;81.70;;;;;;5103181;28;20036;-85
2023/06/13 10:34:43;;;;;;;5.75;2.15;;;26.80;81.40;;;;;;5092172;28;20041;-86
2023/06/13 10:37:38;;;;;;;5.38;2.50;;;26.80;81.50;;;;;;5096630;28;20584;-86
2023/06/13 10:40:15;;;;;;;;;;;26.80;81.10;;;;;;5088995;28;20409;-85
2023/06/13 10:43:07;;;;;;;4.55;2.28;;;26.80;81.80;;;;;;5088277;28;19928;-81
2023/06/13 10:45:35;;;;;;;7.25;2.20;;;26.80;81.20;;;;;;5088418;28;20086;-86
2023/06/13 10:48:06;;;;;;;6.22;2.17;;;26.80;81.80;;;;;;5108058;28;20123;-86
2023/06/13 10:50:41;;;;;;;4.63;2.10;;;26.90;81.20;;;;;;5128832;28;20407;-85
2023/06/13 10:53:09;;;;;;;4.25;2.30;;;26.90;81.00;;;;;;5145767;28;20079;-82
2023/06/13 10:55:40;;;;;;;6.25;2.10;;;26.90;81.20;;;;;;5129148;28;20122;-87
2023/06/13 10:58:12;;;;;;;6.28;2.35;;;26.90;80.80;;;;;;5095621;28;20117;-86
2023/06/13 11:00:39;;;;;;;4.50;2.05;;;26.90;79.20;;;;;;5146189;28;20461;-86
2023/06/13 11:03:12;;;;;;;4.85;2.00;;;26.90;79.80;;;;;;5131540;28;20470;-85
2023/06/13 11:05:45;;;;;;;5.15;2.08;;;26.90;80.20;;;;;;5149365;28;20083;-86
2023/06/13 11:08:22;;;;;;;5.68;2.00;;;26.80;79.00;;;;;;5132669;28;20050;-86
2023/06/13 11:10:50;;;;;;;4.90;2.38;;;26.90;79.60;;;;;;5114437;28;20045;-86
2023/06/13 11:13:25;;;;;;;4.57;2.17;;;27.00;80.20;;;;;;5132406;28;20486;-86
2023/06/13 11:15:57;;;;;;;4.95;2.15;;;27.10;79.00;;;;;;5115890;28;20071;-85
2023/06/13 11:18:29;;;;;;;5.22;2.05;;;27.10;79.50;;;;;;5149872;28;20043;-85
2023/06/13 11:20:58;;;;;;;5.32;2.35;;;27.20;79.10;;;;;;5132849;28;20408;-85
2023/06/13 11:23:38;;;;;;;5.82;1.90;;;27.10;78.40;;;;;;5119145;28;20097;-86
2023/06/13 11:26:05;;;;;;;5.05;2.05;;;27.10;78.20;;;;;;5142427;28;20043;-86
2023/06/13 11:28:32;;;;;;;4.30;2.10;;;27.10;78.70;;;;;;5115915;28;20113;-86
2023/06/13 11:31:04;;;;;;;3.50;1.90;;;27.10;78.20;;;;;;5132439;28;20070;-84
2023/06/13 11:33:38;;;;;;;3.60;2.10;;;27.20;77.50;;;;;;5132386;28;20501;-85
2023/06/13 11:36:06;;;;;;;4.13;2.00;;;27.20;76.50;;;;;;5116138;28;20044;-85
2023/06/13 11:38:40;;;;;;;5.07;2.40;;;27.10;76.80;;;;;;5133195;28;20065;-85
2023/06/13 11:41:07;;;;;;;;;;;27.10;76.00;;;;;;5133053;28;20044;-85
2023/06/13 11:43:35;;;;;;;3.83;2.00;;;27.00;76.30;;;;;;5132433;28;19915;-85
2023/06/13 11:46:03;;;;;;;5.82;2.03;;;27.20;77.50;;;;;;5127054;28;20036;-85
2023/06/13 11:48:30;;;;;;;5.63;2.13;;;27.30;78.00;;;;;;5098203;28;20083;-85
2023/06/13 11:51:11;;;;;;;4.53;2.10;;;27.30;77.10;;;;;;5115448;28;20446;-86
2023/06/13 11:53:55;;;;;;;7.82;2.20;;;27.20;75.60;;;;;;5115417;28;20027;-85
2023/06/13 11:56:23;;;;;;;6.07;1.97;;;27.20;75.70;;;;;;5138936;28;20039;-85
2023/06/13 11:58:52;;;;;;;7.13;2.13;;;27.20;76.60;;;;;;5147953;27;20078;-86
2023/06/13 12:01:21;;;;;;;3.60;2.00;;;27.20;75.60;;;;;;5118754;28;20035;-86
2023/06/13 12:03:48;;;;;;;4.18;1.95;;;27.20;75.60;;;;;;5082434;28;20134;-85
2023/06/13 12:06:17;;;;;;;4.00;2.20;;;27.20;75.30;;;;;;5114166;27;20092;-88
2023/06/13 12:08:45;;;;;;;3.50;2.20;;;27.20;75.10;;;;;;5119407;27;20039;-87
2023/06/13 12:11:14;;;;;;;4.75;1.98;;;27.10;74.60;;;;;;5135878;27;20070;-88
2023/06/13 12:13:41;;;;;;;3.35;1.88;;;27.10;75.30;;;;;;5135186;27;20543;-87
2023/06/13 12:16:08;;;;;;;6.18;2.08;;;27.10;75.40;;;;;;5135428;27;20027;-88
2023/06/13 12:18:34;;;;;;;4.55;2.22;;;27.10;75.00;;;;;;5118869;27;20043;-87
2023/06/13 12:21:01;;;;;;;5.50;2.30;;;26.90;74.90;;;;;;5102056;27;20039;-88
2023/06/13 12:23:28;;;;;;;5.70;2.00;;;27.00;75.60;;;;;;5102113;27;20043;-88
2023/06/13 12:25:56;;;;;;;5.72;2.10;;;27.10;75.50;;;;;;5135808;27;20059;-88
2023/06/13 12:28:23;;;;;;;4.55;2.08;;;27.20;75.40;;;;;;5118414;27;20411;-87
2023/06/13 12:30:51;;;;;;;3.30;1.95;;;27.20;75.20;;;;;;5118909;27;20046;-87
2023/06/13 12:33:25;;;;;;;7.30;2.10;;;27.20;75.00;;;;;;5135074;27;20042;-89
2023/06/13 12:35:54;;;;;;;3.28;2.00;;;27.20;74.60;;;;;;5134857;27;20804;-88
2023/06/13 12:38:28;;;;;;;4.32;2.08;;;27.10;74.40;;;;;;5135192;27;20045;-87
2023/06/13 12:40:56;;;;;;;4.78;2.10;;;27.00;73.20;;;;;;5136314;27;20038;-87
2023/06/13 12:43:27;;;;;;;7.75;2.20;;;26.90;73.80;;;;;;5118160;27;20047;-88
2023/06/13 12:45:58;;;;;;;5.85;2.17;;;27.00;74.30;;;;;;5135230;27;20479;-87
2023/06/13 12:48:25;;;;;;;3.72;2.20;;;27.00;73.70;;;;;;5112221;28;20063;-88
2023/06/13 12:50:54;;;;;;;5.50;2.03;;;27.10;74.00;;;;;;5097992;28;20056;-88
2023/06/13 12:53:24;;;;;;;4.60;2.25;;;27.00;73.40;;;;;;5081827;28;20128;-87
2023/06/13 12:55:52;;;;;;;4.80;2.10;;;27.00;73.50;;;;;;5098166;28;20043;-87